sensor_id;sensor_type;location;lat;lon;timestamp;noise_LAeq;noise_LA_min;noise_LA_max;noise_LA01;noise_LA95
67310;Laerm;65444;51.438;5.982;2023-09-19T00:00:01;41.42;36.06;47.29;;
67310;Laerm;65444;51.438;5.982;2023-09-19T00:00:12;42.13;38.18;49.43;;
67310;Laerm;65444;51.438;5.982;2023-09-19T00:00:23;45.93;40.85;49.10;;
67310;Laerm;65444;51.438;5.982;2023-09-19T00:00:37;44.23;40.59;56.66;;
67310;Laerm;65444;51.438;5.982;2023-09-19T00:00:47;41.77;39.22;50.01;;
67310;Laerm;65444;51.438;5.982;2023-09-19T00:00:58;39.78;37.05;43.54;;
67310;Laerm;65444;51.438;5.982;2023-09-19T00:01:09;39.00;37.22;44.04;;
67310;Laerm;65444;51.438;5.982;2023-09-19T00:01:21;41.13;37.49;52.25;;
67310;Laerm;65444;51.438;5.982;2023-09-19T00:01:32;37.51;35.63;40.74;;
67310;Laerm;65444;51.438;5.982;2023-09-19T00:01:42;36.91;34.66;40.38;;
67310;Laerm;65444;51.438;5.982;2023-09-19T00:01:56;50.24;39.27;63.59;;
67310;Laerm;65444;51.438;5.982;2023-09-19T00:02:07;42.89;39.61;47.42;;
67310;Laerm;65444;51.438;5.982;2023-09-19T00:02:18;40.28;38.09;45.94;;
67310;Laerm;65444;51.438;5.982;2023-09-19T00:02:29;40.79;35.41;56.25;;
67310;Laerm;65444;51.438;5.982;2023-09-19T00:02:39;38.41;35.94;42.42;;
67310;Laerm;65444;51.438;5.982;2023-09-19T00:02:53;40.68;38.46;42.48;;
67310;Laerm;65444;51.438;5.982;2023-09-19T00:03:04;44.88;40.97;53.53;;
67310;Laerm;65444;51.438;5.982;2023-09-19T00:03:16;49.88;41.32;67.65;;
67310;Laerm;65444;51.438;5.982;2023-09-19T00:03:27;55.15;48.44;62.15;;
67310;Laerm;65444;51.438;5.982;2023-09-19T00:03:38;56.00;52.01;60.44;;
67310;Laerm;65444;51.438;5.982;2023-09-19T00:03:49;51.43;48.82;54.85;;
67310;Laerm;65444;51.438;5.982;2023-09-19T00:03:59;51.04;46.92;62.34;;
67310;Laerm;65444;51.438;5.982;2023-09-19T00:04:11;46.41;39.00;56.70;;
67310;Laerm;65444;51.438;5.982;2023-09-19T00:04:22;44.83;35.96;61.19;;
67310;Laerm;65444;51.438;5.982;2023-09-19T00:04:39;35.98;34.21;41.85;;
67310;Laerm;65444;51.438;5.982;2023-09-19T00:04:49;36.79;34.85;44.76;;
67310;Laerm;65444;51.438;5.982;2023-09-19T00:05:00;37.33;35.99;38.57;;
67310;Laerm;65444;51.438;5.982;2023-09-19T00:05:14;38.18;36.55;40.26;;
67310;Laerm;65444;51.438;5.982;2023-09-19T00:05:25;39.58;37.23;47.34;;
67310;Laerm;65444;51.438;5.982;2023-09-19T00:05:38;39.84;36.72;47.16;;
67310;Laerm;65444;51.438;5.982;2023-09-19T00:05:49;37.57;35.58;42.47;;
67310;Laerm;65444;51.438;5.982;2023-09-19T00:06:00;42.50;36.24;56.05;;
67310;Laerm;65444;51.438;5.982;2023-09-19T00:06:11;39.30;36.36;47.14;;
67310;Laerm;65444;51.438;5.982;2023-09-19T00:06:28;40.80;38.03;49.80;;
67310;Laerm;65444;51.438;5.982;2023-09-19T00:06:41;39.25;36.76;42.62;;
67310;Laerm;65444;51.438;5.982;2023-09-19T00:06:52;38.38;37.04;41.03;;
67310;Laerm;65444;51.438;5.982;2023-09-19T00:07:04;38.56;36.88;40.35;;
67310;Laerm;65444;51.438;5.982;2023-09-19T00:07:14;37.92;36.48;39.27;;
67310;Laerm;65444;51.438;5.982;2023-09-19T00:07:26;36.40;34.84;38.98;;
67310;Laerm;65444;51.438;5.982;2023-09-19T00:07:36;37.58;35.65;38.65;;
67310;Laerm;65444;51.438;5.982;2023-09-19T00:07:47;36.31;34.04;38.25;;
67310;Laerm;65444;51.438;5.982;2023-09-19T00:07:57;36.43;34.25;45.64;;
67310;Laerm;65444;51.438;5.982;2023-09-19T00:08:11;38.47;34.22;48.20;;
67310;Laerm;65444;51.438;5.982;2023-09-19T00:08:23;40.03;36.92;53.14;;
67310;Laerm;65444;51.438;5.982;2023-09-19T00:08:34;38.64;36.79;47.04;;
67310;Laerm;65444;51.438;5.982;2023-09-19T00:08:44;38.55;35.22;50.39;;
67310;Laerm;65444;51.438;5.982;2023-09-19T00:08:55;36.31;34.80;39.99;;
67310;Laerm;65444;51.438;5.982;2023-09-19T00:09:05;36.58;34.71;38.06;;
67310;Laerm;65444;51.438;5.982;2023-09-19T00:09:21;36.02;34.44;38.39;;
67310;Laerm;65444;51.438;5.982;2023-09-19T00:09:31;36.13;34.27;43.86;;
67310;Laerm;65444;51.438;5.982;2023-09-19T00:09:47;36.53;34.42;38.57;;
67310;Laerm;65444;51.438;5.982;2023-09-19T00:09:58;38.12;35.42;52.78;;
67310;Laerm;65444;51.438;5.982;2023-09-19T00:10:08;39.38;37.01;43.63;;
67310;Laerm;65444;51.438;5.982;2023-09-19T00:10:22;41.42;39.61;46.04;;
67310;Laerm;65444;51.438;5.982;2023-09-19T00:10:34;42.31;37.53;52.12;;
67310;Laerm;65444;51.438;5.982;2023-09-19T00:10:49;50.26;46.28;55.61;;
67310;Laerm;65444;51.438;5.982;2023-09-19T00:11:00;51.49;47.78;56.44;;
67310;Laerm;65444;51.438;5.982;2023-09-19T00:11:16;47.67;43.22;52.52;;
67310;Laerm;65444;51.438;5.982;2023-09-19T00:11:26;44.42;39.11;47.06;;
67310;Laerm;65444;51.438;5.982;2023-09-19T00:11:37;37.38;34.49;40.68;;
67310;Laerm;65444;51.438;5.982;2023-09-19T00:11:49;34.27;32.09;36.68;;
67310;Laerm;65444;51.438;5.982;2023-09-19T00:12:00;33.00;31.77;34.67;;
67310;Laerm;65444;51.438;5.982;2023-09-19T00:12:10;34.42;31.75;43.03;;
67310;Laerm;65444;51.438;5.982;2023-09-19T00:12:23;37.50;33.56;44.10;;
67310;Laerm;65444;51.438;5.982;2023-09-19T00:12:33;39.02;36.51;46.52;;
67310;Laerm;65444;51.438;5.982;2023-09-19T00:12:44;39.27;37.18;42.38;;
67310;Laerm;65444;51.438;5.982;2023-09-19T00:12:54;40.24;37.07;46.60;;
67310;Laerm;65444;51.438;5.982;2023-09-19T00:13:09;38.68;35.44;44.80;;
67310;Laerm;65444;51.438;5.982;2023-09-19T00:13:23;39.03;35.74;45.11;;
67310;Laerm;65444;51.438;5.982;2023-09-19T00:13:35;41.86;37.25;58.03;;
67310;Laerm;65444;51.438;5.982;2023-09-19T00:13:49;45.63;37.12;58.10;;
67310;Laerm;65444;51.438;5.982;2023-09-19T00:14:00;42.22;37.15;53.17;;
67310;Laerm;65444;51.438;5.982;2023-09-19T00:14:10;41.46;38.45;51.72;;
67310;Laerm;65444;51.438;5.982;2023-09-19T00:14:25;40.72;37.38;48.69;;
67310;Laerm;65444;51.438;5.982;2023-09-19T00:14:36;43.28;39.16;51.30;;
67310;Laerm;65444;51.438;5.982;2023-09-19T00:14:46;46.89;40.97;54.29;;
67310;Laerm;65444;51.438;5.982;2023-09-19T00:14:58;45.08;40.34;54.42;;
67310;Laerm;65444;51.438;5.982;2023-09-19T00:15:11;44.43;39.11;59.07;;
67310;Laerm;65444;51.438;5.982;2023-09-19T00:15:22;39.40;37.78;44.18;;
67310;Laerm;65444;51.438;5.982;2023-09-19T00:15:42;41.10;37.03;51.88;;
67310;Laerm;65444;51.438;5.982;2023-09-19T00:15:58;37.65;35.16;46.02;;
67310;Laerm;65444;51.438;5.982;2023-09-19T00:16:09;37.36;35.15;39.57;;
67310;Laerm;65444;51.438;5.982;2023-09-19T00:16:25;35.48;33.69;40.16;;
67310;Laerm;65444;51.438;5.982;2023-09-19T00:16:36;35.69;33.73;40.81;;
67310;Laerm;65444;51.438;5.982;2023-09-19T00:16:46;37.72;35.30;45.16;;
67310;Laerm;65444;51.438;5.982;2023-09-19T00:16:56;37.48;35.70;39.62;;
67310;Laerm;65444;51.438;5.982;2023-09-19T00:17:07;37.73;36.19;39.55;;
67310;Laerm;65444;51.438;5.982;2023-09-19T00:17:19;37.12;35.09;46.81;;
67310;Laerm;65444;51.438;5.982;2023-09-19T00:17:36;40.50;36.35;53.08;;
67310;Laerm;65444;51.438;5.982;2023-09-19T00:17:47;43.56;38.94;46.73;;
67310;Laerm;65444;51.438;5.982;2023-09-19T00:17:58;41.48;38.48;51.79;;
67310;Laerm;65444;51.438;5.982;2023-09-19T00:18:09;39.80;36.88;53.01;;
67310;Laerm;65444;51.438;5.982;2023-09-19T00:18:19;37.58;35.66;41.95;;
67310;Laerm;65444;51.438;5.982;2023-09-19T00:18:39;39.86;35.82;50.31;;
67310;Laerm;65444;51.438;5.982;2023-09-19T00:18:49;43.42;38.96;57.43;;
67310;Laerm;65444;51.438;5.982;2023-09-19T00:18:59;40.16;37.82;46.67;;
67310;Laerm;65444;51.438;5.982;2023-09-19T00:19:14;45.21;39.37;58.34;;
67310;Laerm;65444;51.438;5.982;2023-09-19T00:19:26;42.52;39.78;55.93;;
67310;Laerm;65444;51.438;5.982;2023-09-19T00:19:36;41.56;38.88;55.97;;
67310;Laerm;65444;51.438;5.982;2023-09-19T00:19:47;41.46;38.53;47.21;;
67310;Laerm;65444;51.438;5.982;2023-09-19T00:19:59;40.56;37.90;45.47;;
67310;Laerm;65444;51.438;5.982;2023-09-19T00:20:10;42.93;38.46;51.51;;
67310;Laerm;65444;51.438;5.982;2023-09-19T00:20:23;50.84;44.37;55.22;;
67310;Laerm;65444;51.438;5.982;2023-09-19T00:20:37;56.67;51.77;59.66;;
67310;Laerm;65444;51.438;5.982;2023-09-19T00:20:48;54.43;48.27;58.60;;
67310;Laerm;65444;51.438;5.982;2023-09-19T00:20:59;49.81;46.43;53.24;;
67310;Laerm;65444;51.438;5.982;2023-09-19T00:21:10;44.76;37.28;51.70;;
67310;Laerm;65444;51.438;5.982;2023-09-19T00:21:21;36.89;35.02;40.86;;
67310;Laerm;65444;51.438;5.982;2023-09-19T00:21:32;35.32;33.91;38.75;;
67310;Laerm;65444;51.438;5.982;2023-09-19T00:21:42;36.59;34.31;40.10;;
67310;Laerm;65444;51.438;5.982;2023-09-19T00:21:53;41.25;35.66;54.31;;
67310;Laerm;65444;51.438;5.982;2023-09-19T00:22:03;35.72;33.79;41.81;;
67310;Laerm;65444;51.438;5.982;2023-09-19T00:22:14;35.02;33.63;36.68;;
67310;Laerm;65444;51.438;5.982;2023-09-19T00:22:26;34.92;33.67;37.12;;
67310;Laerm;65444;51.438;5.982;2023-09-19T00:22:39;34.50;33.17;36.89;;
67310;Laerm;65444;51.438;5.982;2023-09-19T00:22:49;35.12;33.30;36.49;;
67310;Laerm;65444;51.438;5.982;2023-09-19T00:23:03;35.79;33.93;37.44;;
67310;Laerm;65444;51.438;5.982;2023-09-19T00:23:14;35.30;33.85;38.39;;
67310;Laerm;65444;51.438;5.982;2023-09-19T00:23:25;36.49;33.65;40.52;;
67310;Laerm;65444;51.438;5.982;2023-09-19T00:23:35;36.97;34.88;43.26;;
67310;Laerm;65444;51.438;5.982;2023-09-19T00:23:46;35.95;34.54;37.69;;
67310;Laerm;65444;51.438;5.982;2023-09-19T00:23:56;36.20;33.62;45.81;;
67310;Laerm;65444;51.438;5.982;2023-09-19T00:24:07;37.25;35.74;39.18;;
67310;Laerm;65444;51.438;5.982;2023-09-19T00:24:19;36.75;35.24;39.18;;
67310;Laerm;65444;51.438;5.982;2023-09-19T00:24:30;36.20;34.93;37.60;;
67310;Laerm;65444;51.438;5.982;2023-09-19T00:24:41;36.02;34.66;42.95;;
67310;Laerm;65444;51.438;5.982;2023-09-19T00:24:51;35.60;33.65;37.22;;
67310;Laerm;65444;51.438;5.982;2023-09-19T00:25:03;37.97;35.30;45.62;;
67310;Laerm;65444;51.438;5.982;2023-09-19T00:25:19;38.38;35.56;42.20;;
67310;Laerm;65444;51.438;5.982;2023-09-19T00:25:33;36.52;34.70;37.94;;
67310;Laerm;65444;51.438;5.982;2023-09-19T00:25:45;35.55;33.87;37.31;;
67310;Laerm;65444;51.438;5.982;2023-09-19T00:25:58;34.90;32.85;36.25;;
67310;Laerm;65444;51.438;5.982;2023-09-19T00:26:08;35.36;32.95;45.34;;
67310;Laerm;65444;51.438;5.982;2023-09-19T00:26:19;34.57;32.90;41.10;;
67310;Laerm;65444;51.438;5.982;2023-09-19T00:26:32;36.53;33.23;47.41;;
67310;Laerm;65444;51.438;5.982;2023-09-19T00:26:43;37.62;34.38;51.21;;
67310;Laerm;65444;51.438;5.982;2023-09-19T00:26:53;38.14;35.91;44.35;;
67310;Laerm;65444;51.438;5.982;2023-09-19T00:27:15;39.23;36.65;46.24;;
67310;Laerm;65444;51.438;5.982;2023-09-19T00:27:25;49.40;39.94;63.55;;
67310;Laerm;65444;51.438;5.982;2023-09-19T00:27:35;43.84;39.17;55.51;;
67310;Laerm;65444;51.438;5.982;2023-09-19T00:27:57;43.07;38.51;56.73;;
67310;Laerm;65444;51.438;5.982;2023-09-19T00:28:08;41.10;37.87;52.44;;
67310;Laerm;65444;51.438;5.982;2023-09-19T00:28:20;41.28;37.99;43.35;;
67310;Laerm;65444;51.438;5.982;2023-09-19T00:28:31;43.71;39.34;51.97;;
67310;Laerm;65444;51.438;5.982;2023-09-19T00:28:41;43.58;41.00;51.54;;
67310;Laerm;65444;51.438;5.982;2023-09-19T00:28:52;40.03;36.38;48.32;;
67310;Laerm;65444;51.438;5.982;2023-09-19T00:29:03;37.68;34.95;44.64;;
67310;Laerm;65444;51.438;5.982;2023-09-19T00:29:13;36.48;34.09;40.21;;
67310;Laerm;65444;51.438;5.982;2023-09-19T00:29:26;35.96;33.92;38.88;;
67310;Laerm;65444;51.438;5.982;2023-09-19T00:29:39;38.33;36.17;40.46;;
67310;Laerm;65444;51.438;5.982;2023-09-19T00:29:49;37.51;36.62;38.68;;
67310;Laerm;65444;51.438;5.982;2023-09-19T00:30:00;36.82;34.99;39.06;;
67310;Laerm;65444;51.438;5.982;2023-09-19T00:30:11;48.97;36.93;63.08;;
67310;Laerm;65444;51.438;5.982;2023-09-19T00:30:25;41.42;36.91;52.96;;
67310;Laerm;65444;51.438;5.982;2023-09-19T00:30:36;35.84;33.98;42.95;;
67310;Laerm;65444;51.438;5.982;2023-09-19T00:30:48;34.51;32.60;36.55;;
67310;Laerm;65444;51.438;5.982;2023-09-19T00:31:02;34.34;32.59;36.12;;
67310;Laerm;65444;51.438;5.982;2023-09-19T00:31:12;37.00;33.43;46.97;;
67310;Laerm;65444;51.438;5.982;2023-09-19T00:31:23;34.30;32.54;42.76;;
67310;Laerm;65444;51.438;5.982;2023-09-19T00:31:34;34.59;32.84;36.33;;
67310;Laerm;65444;51.438;5.982;2023-09-19T00:31:44;35.57;33.88;38.08;;
67310;Laerm;65444;51.438;5.982;2023-09-19T00:31:55;37.42;34.18;47.83;;
67310;Laerm;65444;51.438;5.982;2023-09-19T00:32:07;37.05;34.28;41.57;;
67310;Laerm;65444;51.438;5.982;2023-09-19T00:32:18;35.67;33.98;37.37;;
67310;Laerm;65444;51.438;5.982;2023-09-19T00:32:29;35.08;33.65;36.86;;
67310;Laerm;65444;51.438;5.982;2023-09-19T00:32:42;34.68;32.85;36.73;;
67310;Laerm;65444;51.438;5.982;2023-09-19T00:32:52;35.29;34.07;36.76;;
67310;Laerm;65444;51.438;5.982;2023-09-19T00:33:03;34.36;33.02;35.79;;
67310;Laerm;65444;51.438;5.982;2023-09-19T00:33:16;34.50;32.78;40.91;;
67310;Laerm;65444;51.438;5.982;2023-09-19T00:33:26;36.52;33.87;48.07;;
67310;Laerm;65444;51.438;5.982;2023-09-19T00:33:37;35.02;33.73;36.02;;
67310;Laerm;65444;51.438;5.982;2023-09-19T00:33:47;37.19;34.46;44.50;;
67310;Laerm;65444;51.438;5.982;2023-09-19T00:33:59;38.19;33.05;52.50;;
67310;Laerm;65444;51.438;5.982;2023-09-19T00:34:14;37.99;34.17;42.58;;
67310;Laerm;65444;51.438;5.982;2023-09-19T00:34:24;37.66;35.51;41.00;;
67310;Laerm;65444;51.438;5.982;2023-09-19T00:34:35;40.46;37.66;45.14;;
67310;Laerm;65444;51.438;5.982;2023-09-19T00:34:45;39.62;35.90;49.57;;
67310;Laerm;65444;51.438;5.982;2023-09-19T00:34:56;36.81;33.83;40.26;;
67310;Laerm;65444;51.438;5.982;2023-09-19T00:35:07;34.56;33.09;38.12;;
67310;Laerm;65444;51.438;5.982;2023-09-19T00:35:21;39.21;33.84;51.58;;
67310;Laerm;65444;51.438;5.982;2023-09-19T00:35:34;37.21;33.85;46.27;;
67310;Laerm;65444;51.438;5.982;2023-09-19T00:35:51;37.62;34.42;47.65;;
67310;Laerm;65444;51.438;5.982;2023-09-19T00:36:01;36.68;34.35;46.74;;
67310;Laerm;65444;51.438;5.982;2023-09-19T00:36:15;36.84;35.28;43.67;;
67310;Laerm;65444;51.438;5.982;2023-09-19T00:36:25;36.91;35.39;43.52;;
67310;Laerm;65444;51.438;5.982;2023-09-19T00:36:36;37.77;35.15;50.47;;
67310;Laerm;65444;51.438;5.982;2023-09-19T00:36:48;35.56;34.13;36.98;;
67310;Laerm;65444;51.438;5.982;2023-09-19T00:37:02;41.02;35.33;56.27;;
67310;Laerm;65444;51.438;5.982;2023-09-19T00:37:12;39.81;35.71;43.72;;
67310;Laerm;65444;51.438;5.982;2023-09-19T00:37:23;38.92;36.25;40.79;;
67310;Laerm;65444;51.438;5.982;2023-09-19T00:37:33;36.04;33.55;38.81;;
67310;Laerm;65444;51.438;5.982;2023-09-19T00:37:44;35.58;34.09;38.43;;
67310;Laerm;65444;51.438;5.982;2023-09-19T00:37:55;34.63;33.19;37.43;;
67310;Laerm;65444;51.438;5.982;2023-09-19T00:38:06;35.17;33.56;44.34;;
67310;Laerm;65444;51.438;5.982;2023-09-19T00:38:17;35.08;33.63;41.59;;
67310;Laerm;65444;51.438;5.982;2023-09-19T00:38:31;36.48;33.52;38.84;;
67310;Laerm;65444;51.438;5.982;2023-09-19T00:38:42;35.92;33.31;45.99;;
67310;Laerm;65444;51.438;5.982;2023-09-19T00:38:54;33.83;31.95;35.35;;
67310;Laerm;65444;51.438;5.982;2023-09-19T00:39:06;33.44;31.94;34.65;;
67310;Laerm;65444;51.438;5.982;2023-09-19T00:39:16;33.29;31.76;35.27;;
67310;Laerm;65444;51.438;5.982;2023-09-19T00:39:27;33.49;31.95;34.58;;
67310;Laerm;65444;51.438;5.982;2023-09-19T00:39:41;35.46;32.47;42.69;;
67310;Laerm;65444;51.438;5.982;2023-09-19T00:40:05;39.40;36.90;43.25;;
67310;Laerm;65444;51.438;5.982;2023-09-19T00:40:15;41.23;37.66;47.11;;
67310;Laerm;65444;51.438;5.982;2023-09-19T00:40:27;36.49;34.33;39.09;;
67310;Laerm;65444;51.438;5.982;2023-09-19T00:40:38;35.47;33.04;40.10;;
67310;Laerm;65444;51.438;5.982;2023-09-19T00:40:48;37.85;35.07;42.35;;
67310;Laerm;65444;51.438;5.982;2023-09-19T00:41:00;39.22;37.01;42.31;;
67310;Laerm;65444;51.438;5.982;2023-09-19T00:41:10;37.20;34.99;44.32;;
67310;Laerm;65444;51.438;5.982;2023-09-19T00:41:21;40.46;35.18;51.23;;
67310;Laerm;65444;51.438;5.982;2023-09-19T00:41:34;37.66;35.56;39.99;;
67310;Laerm;65444;51.438;5.982;2023-09-19T00:41:48;36.35;33.55;49.69;;
67310;Laerm;65444;51.438;5.982;2023-09-19T00:41:59;35.19;33.97;36.96;;
67310;Laerm;65444;51.438;5.982;2023-09-19T00:42:19;37.08;33.75;46.65;;
67310;Laerm;65444;51.438;5.982;2023-09-19T00:42:31;34.67;33.04;35.75;;
67310;Laerm;65444;51.438;5.982;2023-09-19T00:42:42;33.21;31.48;35.54;;
67310;Laerm;65444;51.438;5.982;2023-09-19T00:42:52;34.34;32.48;35.99;;
67310;Laerm;65444;51.438;5.982;2023-09-19T00:43:07;40.32;34.48;52.95;;
67310;Laerm;65444;51.438;5.982;2023-09-19T00:43:18;39.71;36.38;49.21;;
67310;Laerm;65444;51.438;5.982;2023-09-19T00:43:29;35.45;33.71;37.08;;
67310;Laerm;65444;51.438;5.982;2023-09-19T00:43:39;34.91;33.87;35.90;;
67310;Laerm;65444;51.438;5.982;2023-09-19T00:43:50;35.07;33.56;41.82;;
67310;Laerm;65444;51.438;5.982;2023-09-19T00:44:01;34.65;32.97;38.87;;
67310;Laerm;65444;51.438;5.982;2023-09-19T00:44:12;33.73;32.60;34.82;;
67310;Laerm;65444;51.438;5.982;2023-09-19T00:44:25;34.03;32.23;36.80;;
67310;Laerm;65444;51.438;5.982;2023-09-19T00:44:36;37.12;33.13;50.33;;
67310;Laerm;65444;51.438;5.982;2023-09-19T00:44:47;36.97;34.20;44.21;;
67310;Laerm;65444;51.438;5.982;2023-09-19T00:45:01;42.33;36.03;58.46;;
67310;Laerm;65444;51.438;5.982;2023-09-19T00:45:13;41.83;39.14;51.05;;
67310;Laerm;65444;51.438;5.982;2023-09-19T00:45:30;41.22;38.64;44.18;;
67310;Laerm;65444;51.438;5.982;2023-09-19T00:45:44;41.48;35.46;55.60;;
67310;Laerm;65444;51.438;5.982;2023-09-19T00:45:56;37.81;35.90;46.48;;
67310;Laerm;65444;51.438;5.982;2023-09-19T00:46:06;36.49;32.62;48.47;;
67310;Laerm;65444;51.438;5.982;2023-09-19T00:46:17;35.35;32.49;37.04;;
67310;Laerm;65444;51.438;5.982;2023-09-19T00:46:28;35.57;33.46;47.22;;
67310;Laerm;65444;51.438;5.982;2023-09-19T00:46:45;34.50;32.64;36.28;;
67310;Laerm;65444;51.438;5.982;2023-09-19T00:46:59;35.01;32.70;37.70;;
67310;Laerm;65444;51.438;5.982;2023-09-19T00:47:09;34.96;33.05;38.82;;
67310;Laerm;65444;51.438;5.982;2023-09-19T00:47:27;36.52;33.20;44.75;;
67310;Laerm;65444;51.438;5.982;2023-09-19T00:47:41;37.91;35.82;43.34;;
67310;Laerm;65444;51.438;5.982;2023-09-19T00:47:52;40.74;36.41;45.93;;
67310;Laerm;65444;51.438;5.982;2023-09-19T00:48:02;43.97;41.16;48.90;;
67310;Laerm;65444;51.438;5.982;2023-09-19T00:48:15;52.18;41.36;59.76;;
67310;Laerm;65444;51.438;5.982;2023-09-19T00:48:25;54.05;50.70;58.28;;
67310;Laerm;65444;51.438;5.982;2023-09-19T00:48:40;51.72;47.85;55.47;;
67310;Laerm;65444;51.438;5.982;2023-09-19T00:48:53;46.77;41.03;50.34;;
67310;Laerm;65444;51.438;5.982;2023-09-19T00:49:05;39.12;35.94;47.65;;
67310;Laerm;65444;51.438;5.982;2023-09-19T00:49:18;37.43;35.09;50.60;;
67310;Laerm;65444;51.438;5.982;2023-09-19T00:49:30;40.06;36.89;44.65;;
67310;Laerm;65444;51.438;5.982;2023-09-19T00:49:43;41.69;39.81;43.28;;
67310;Laerm;65444;51.438;5.982;2023-09-19T00:49:54;45.42;41.24;57.36;;
67310;Laerm;65444;51.438;5.982;2023-09-19T00:50:10;43.01;41.24;45.20;;
67310;Laerm;65444;51.438;5.982;2023-09-19T00:50:24;43.28;38.94;52.31;;
67310;Laerm;65444;51.438;5.982;2023-09-19T00:50:36;39.75;37.05;44.04;;
67310;Laerm;65444;51.438;5.982;2023-09-19T00:50:47;42.07;36.52;48.14;;
67310;Laerm;65444;51.438;5.982;2023-09-19T00:50:59;48.98;37.47;63.09;;
67310;Laerm;65444;51.438;5.982;2023-09-19T00:51:12;37.92;35.81;48.38;;
67310;Laerm;65444;51.438;5.982;2023-09-19T00:51:24;38.56;36.01;40.70;;
67310;Laerm;65444;51.438;5.982;2023-09-19T00:51:35;43.13;37.87;57.57;;
67310;Laerm;65444;51.438;5.982;2023-09-19T00:51:46;40.05;38.43;46.58;;
67310;Laerm;65444;51.438;5.982;2023-09-19T00:51:57;48.53;38.31;66.36;;
67310;Laerm;65444;51.438;5.982;2023-09-19T00:52:08;40.81;37.38;48.49;;
67310;Laerm;65444;51.438;5.982;2023-09-19T00:52:20;38.72;36.45;45.16;;
67310;Laerm;65444;51.438;5.982;2023-09-19T00:52:31;38.57;36.44;46.09;;
67310;Laerm;65444;51.438;5.982;2023-09-19T00:52:46;45.57;37.16;61.98;;
67310;Laerm;65444;51.438;5.982;2023-09-19T00:52:58;38.06;36.12;44.80;;
67310;Laerm;65444;51.438;5.982;2023-09-19T00:53:09;36.86;35.63;42.67;;
67310;Laerm;65444;51.438;5.982;2023-09-19T00:53:23;37.04;34.94;44.72;;
67310;Laerm;65444;51.438;5.982;2023-09-19T00:53:35;37.36;35.70;39.44;;
67310;Laerm;65444;51.438;5.982;2023-09-19T00:53:46;40.56;37.02;51.44;;
67310;Laerm;65444;51.438;5.982;2023-09-19T00:53:57;44.27;40.68;54.17;;
67310;Laerm;65444;51.438;5.982;2023-09-19T00:54:09;42.59;40.01;50.47;;
67310;Laerm;65444;51.438;5.982;2023-09-19T00:54:19;47.31;41.70;50.88;;
67310;Laerm;65444;51.438;5.982;2023-09-19T00:54:31;50.94;45.48;60.51;;
67310;Laerm;65444;51.438;5.982;2023-09-19T00:54:43;52.93;49.88;58.03;;
67310;Laerm;65444;51.438;5.982;2023-09-19T00:54:54;55.65;50.49;60.09;;
67310;Laerm;65444;51.438;5.982;2023-09-19T00:55:07;50.20;45.69;55.41;;
67310;Laerm;65444;51.438;5.982;2023-09-19T00:55:17;45.56;40.28;50.14;;
67310;Laerm;65444;51.438;5.982;2023-09-19T00:55:31;42.09;38.87;45.89;;
67310;Laerm;65444;51.438;5.982;2023-09-19T00:55:42;40.43;38.09;42.42;;
67310;Laerm;65444;51.438;5.982;2023-09-19T00:55:54;43.09;38.87;50.53;;
67310;Laerm;65444;51.438;5.982;2023-09-19T00:56:06;46.92;43.06;55.66;;
67310;Laerm;65444;51.438;5.982;2023-09-19T00:56:16;43.28;41.05;46.37;;
67310;Laerm;65444;51.438;5.982;2023-09-19T00:56:28;46.82;40.88;58.40;;
67310;Laerm;65444;51.438;5.982;2023-09-19T00:56:38;50.80;46.39;63.26;;
67310;Laerm;65444;51.438;5.982;2023-09-19T00:56:50;45.53;41.16;49.86;;
67310;Laerm;65444;51.438;5.982;2023-09-19T00:57:01;41.02;39.69;43.16;;
67310;Laerm;65444;51.438;5.982;2023-09-19T00:57:11;39.64;36.58;43.91;;
67310;Laerm;65444;51.438;5.982;2023-09-19T00:57:22;41.82;36.07;49.70;;
67310;Laerm;65444;51.438;5.982;2023-09-19T00:57:33;40.04;34.95;51.09;;
67310;Laerm;65444;51.438;5.982;2023-09-19T00:57:43;38.20;35.53;42.24;;
67310;Laerm;65444;51.438;5.982;2023-09-19T00:57:55;37.65;35.63;40.12;;
67310;Laerm;65444;51.438;5.982;2023-09-19T00:58:05;37.48;35.69;39.28;;
67310;Laerm;65444;51.438;5.982;2023-09-19T00:58:17;38.42;36.95;41.29;;
67310;Laerm;65444;51.438;5.982;2023-09-19T00:58:28;43.08;38.99;45.68;;
67310;Laerm;65444;51.438;5.982;2023-09-19T00:58:44;45.30;42.82;51.74;;
67310;Laerm;65444;51.438;5.982;2023-09-19T00:58:54;48.12;42.23;58.99;;
67310;Laerm;65444;51.438;5.982;2023-09-19T00:59:04;52.09;45.87;62.24;;
67310;Laerm;65444;51.438;5.982;2023-09-19T00:59:15;44.94;41.07;51.89;;
67310;Laerm;65444;51.438;5.982;2023-09-19T00:59:27;43.99;41.28;47.61;;
67310;Laerm;65444;51.438;5.982;2023-09-19T00:59:37;40.99;38.17;45.21;;
67310;Laerm;65444;51.438;5.982;2023-09-19T00:59:49;37.97;35.55;40.70;;
67310;Laerm;65444;51.438;5.982;2023-09-19T01:00:03;45.63;36.79;59.07;;
67310;Laerm;65444;51.438;5.982;2023-09-19T01:00:18;45.71;43.11;52.27;;
67310;Laerm;65444;51.438;5.982;2023-09-19T01:00:30;46.42;41.45;58.98;;
67310;Laerm;65444;51.438;5.982;2023-09-19T01:00:42;39.97;36.22;45.95;;
67310;Laerm;65444;51.438;5.982;2023-09-19T01:00:53;37.57;36.05;41.43;;
67310;Laerm;65444;51.438;5.982;2023-09-19T01:01:03;40.99;37.57;46.43;;
67310;Laerm;65444;51.438;5.982;2023-09-19T01:01:24;39.77;38.48;41.14;;
67310;Laerm;65444;51.438;5.982;2023-09-19T01:01:35;40.69;37.79;44.80;;
67310;Laerm;65444;51.438;5.982;2023-09-19T01:01:45;38.03;36.34;39.87;;
67310;Laerm;65444;51.438;5.982;2023-09-19T01:01:56;36.77;35.35;39.09;;
67310;Laerm;65444;51.438;5.982;2023-09-19T01:02:06;37.05;35.91;38.56;;
67310;Laerm;65444;51.438;5.982;2023-09-19T01:02:18;38.08;36.79;39.72;;
67310;Laerm;65444;51.438;5.982;2023-09-19T01:02:28;38.91;36.71;40.87;;
67310;Laerm;65444;51.438;5.982;2023-09-19T01:02:40;37.67;36.24;39.52;;
67310;Laerm;65444;51.438;5.982;2023-09-19T01:02:51;38.28;35.61;51.64;;
67310;Laerm;65444;51.438;5.982;2023-09-19T01:03:02;37.27;34.75;48.77;;
67310;Laerm;65444;51.438;5.982;2023-09-19T01:03:12;36.60;34.91;38.38;;
67310;Laerm;65444;51.438;5.982;2023-09-19T01:03:23;39.33;34.84;43.67;;
67310;Laerm;65444;51.438;5.982;2023-09-19T01:03:34;41.97;38.59;45.97;;
67310;Laerm;65444;51.438;5.982;2023-09-19T01:03:44;39.39;37.01;41.28;;
67310;Laerm;65444;51.438;5.982;2023-09-19T01:03:55;39.09;37.65;44.02;;
67310;Laerm;65444;51.438;5.982;2023-09-19T01:04:05;40.10;37.78;42.56;;
67310;Laerm;65444;51.438;5.982;2023-09-19T01:04:16;40.67;37.59;42.34;;
67310;Laerm;65444;51.438;5.982;2023-09-19T01:04:28;38.85;36.85;41.75;;
67310;Laerm;65444;51.438;5.982;2023-09-19T01:04:38;39.61;35.70;46.68;;
67310;Laerm;65444;51.438;5.982;2023-09-19T01:04:48;42.64;41.07;44.17;;
67310;Laerm;65444;51.438;5.982;2023-09-19T01:04:59;46.40;43.11;49.96;;
67310;Laerm;65444;51.438;5.982;2023-09-19T01:05:14;48.96;43.99;64.24;;
67310;Laerm;65444;51.438;5.982;2023-09-19T01:05:25;44.94;41.52;56.90;;
67310;Laerm;65444;51.438;5.982;2023-09-19T01:05:36;46.75;43.14;52.06;;
67310;Laerm;65444;51.438;5.982;2023-09-19T01:05:46;46.17;43.45;54.63;;
67310;Laerm;65444;51.438;5.982;2023-09-19T01:05:57;42.77;41.14;45.51;;
67310;Laerm;65444;51.438;5.982;2023-09-19T01:06:10;43.52;40.39;50.81;;
67310;Laerm;65444;51.438;5.982;2023-09-19T01:06:21;44.78;40.44;53.94;;